Time;durP1;ratioP1;P1;durP2;ratioP2;P2;SDS_P1;SDS_P2;PMS_P1;PMS_P2;Temp;Humidity;BMP_temperature;BMP_pressure;BME280_temperature;BME280_humidity;BME280_pressure;Samples;Min_cycle;Max_cycle;Signal;HPM_P1;HPM_P2
2021/06/23 00:00:22;;;;;;;9.27;7.03;;;13.90;99.90;;;;;;5072449;28;20398;-41
2021/06/23 00:02:47;;;;;;;11.00;6.45;;;13.90;99.90;;;;;;5070531;28;20028;-40
2021/06/23 00:05:14;;;;;;;10.23;7.03;;;13.90;99.90;;;;;;5075583;28;20040;-39
2021/06/23 00:07:43;;;;;;;9.93;6.47;;;13.90;99.90;;;;;;5067230;28;20044;-38
2021/06/23 00:10:09;;;;;;;10.43;7.25;;;13.90;99.90;;;;;;5077578;28;20021;-40
2021/06/23 00:12:34;;;;;;;10.25;6.78;;;13.90;99.90;;;;;;5072155;28;20021;-42
2021/06/23 00:15:04;;;;;;;13.05;6.68;;;13.90;99.90;;;;;;5079088;28;20161;-41
2021/06/23 00:17:30;;;;;;;11.90;7.72;;;13.90;99.90;;;;;;5090167;28;20024;-42
2021/06/23 00:19:56;;;;;;;9.73;7.45;;;13.80;99.90;;;;;;5078739;28;20592;-41
2021/06/23 00:22:22;;;;;;;8.02;6.43;;;13.80;99.90;;;;;;5090487;28;20055;-41
2021/06/23 00:24:48;;;;;;;11.27;7.47;;;13.80;99.90;;;;;;5077717;28;20166;-42
2021/06/23 00:27:23;;;;;;;9.98;6.88;;;13.80;99.90;;;;;;5090469;28;20119;-42
2021/06/23 00:29:48;;;;;;;10.35;7.13;;;13.70;99.90;;;;;;5077702;28;20028;-42
2021/06/23 00:32:18;;;;;;;9.88;6.70;;;13.80;99.90;;;;;;5089859;28;20028;-42
2021/06/23 00:34:43;;;;;;;12.57;7.63;;;13.80;99.90;;;;;;5078220;28;20029;-43
2021/06/23 00:37:12;;;;;;;13.50;7.38;;;13.80;99.90;;;;;;5088886;28;20027;-42
2021/06/23 00:39:38;;;;;;;11.48;6.97;;;13.80;99.90;;;;;;5081411;28;20050;-41
2021/06/23 00:42:07;;;;;;;13.32;8.23;;;13.80;99.90;;;;;;5086052;28;20027;-42
2021/06/23 00:44:33;;;;;;;12.85;8.35;;;13.80;99.90;;;;;;5082936;28;20495;-43
2021/06/23 00:46:58;;;;;;;12.57;8.57;;;13.70;99.90;;;;;;5084231;28;20158;-42
2021/06/23 00:49:31;;;;;;;12.57;7.82;;;13.60;99.90;;;;;;5085521;28;20021;-42
2021/06/23 00:51:57;;;;;;;11.93;7.47;;;13.60;99.90;;;;;;5082685;28;20471;-42
2021/06/23 00:54:23;;;;;;;9.77;7.43;;;13.50;99.90;;;;;;5087302;28;20349;-41
2021/06/23 00:56:49;;;;;;;11.32;7.50;;;13.50;99.90;;;;;;5079991;28;20103;-42
2021/06/23 00:59:15;;;;;;;8.70;7.20;;;13.50;99.90;;;;;;5088318;28;20226;-42
2021/06/23 01:01:41;;;;;;;11.55;7.22;;;13.50;99.90;;;;;;5078359;28;20099;-42
2021/06/23 01:04:08;;;;;;;16.13;8.02;;;13.50;99.90;;;;;;5087773;28;20450;-42
2021/06/23 01:06:34;;;;;;;11.90;7.63;;;13.50;99.90;;;;;;5078349;28;20098;-42
2021/06/23 01:09:00;;;;;;;12.38;7.47;;;13.50;99.90;;;;;;5089390;28;20020;-41
2021/06/23 01:11:27;;;;;;;11.82;7.20;;;13.50;99.90;;;;;;5076487;28;20027;-42
2021/06/23 01:14:06;;;;;;;12.93;7.40;;;13.50;99.90;;;;;;5075769;28;20488;-43
2021/06/23 01:16:38;;;;;;;8.20;6.35;;;13.50;99.90;;;;;;5081356;28;20027;-43
2021/06/23 01:19:09;;;;;;;10.75;7.03;;;13.50;99.90;;;;;;5068820;28;20435;-42
2021/06/23 01:21:35;;;;;;;8.52;6.35;;;13.50;99.90;;;;;;5081391;28;20071;-42
2021/06/23 01:24:04;;;;;;;13.25;7.45;;;13.50;99.90;;;;;;5067974;28;20068;-43
2021/06/23 01:26:30;;;;;;;12.90;7.00;;;13.50;99.90;;;;;;5080742;28;20030;-42
2021/06/23 01:28:55;;;;;;;11.45;6.50;;;13.50;99.90;;;;;;5069310;28;20025;-41
2021/06/23 01:31:21;;;;;;;9.13;6.63;;;13.50;99.90;;;;;;5077526;28;20028;-43
2021/06/23 01:33:48;;;;;;;12.80;7.40;;;13.50;99.90;;;;;;5071891;28;20016;-42
2021/06/23 01:36:14;;;;;;;10.63;6.88;;;13.50;99.90;;;;;;5075579;28;20020;-41
2021/06/23 01:38:39;;;;;;;8.15;6.50;;;13.50;99.90;;;;;;5056648;28;20646;-41
2021/06/23 01:41:05;;;;;;;13.43;6.75;;;13.50;99.90;;;;;;5072481;28;20032;-42
2021/06/23 01:43:34;;;;;;;11.02;6.68;;;13.50;99.90;;;;;;5077812;28;20033;-41
2021/06/23 01:46:05;;;;;;;9.10;6.35;;;13.50;99.90;;;;;;5069593;28;20035;-42
2021/06/23 01:48:31;;;;;;;11.27;6.57;;;13.50;99.90;;;;;;5079020;28;20039;-42
2021/06/23 01:50:59;;;;;;;12.57;7.20;;;13.50;99.90;;;;;;5069847;28;20106;-42
2021/06/23 01:53:26;;;;;;;10.88;7.32;;;13.50;99.90;;;;;;5079695;28;20025;-42
2021/06/23 01:55:53;;;;;;;9.07;6.53;;;13.50;99.90;;;;;;5069671;28;20106;-41
2021/06/23 01:58:20;;;;;;;10.60;6.63;;;13.50;99.90;;;;;;5079607;28;20016;-41
2021/06/23 02:00:57;;;;;;;11.15;6.90;;;13.50;99.90;;;;;;5067987;28;20032;-41
2021/06/23 02:03:47;;;;;;;9.40;6.38;;;13.50;99.90;;;;;;5077128;28;20028;-42
2021/06/23 02:06:54;;;;;;;9.40;6.78;;;13.50;99.90;;;;;;5086373;28;20028;-41
2021/06/23 02:09:47;;;;;;;8.05;6.40;;;13.50;99.90;;;;;;5071373;28;20173;-42
2021/06/23 02:12:31;;;;;;;11.07;7.00;;;13.50;99.90;;;;;;5083348;28;20102;-42
2021/06/23 02:14:58;;;;;;;7.57;6.60;;;13.50;99.90;;;;;;5047946;28;20082;-41
2021/06/23 02:17:27;;;;;;;11.10;6.88;;;13.50;99.90;;;;;;5062390;28;20477;-42
2021/06/23 02:19:54;;;;;;;12.65;7.05;;;13.40;99.90;;;;;;5075105;28;20115;-41
2021/06/23 02:22:22;;;;;;;12.20;6.80;;;13.40;99.90;;;;;;5071027;28;20111;-42
2021/06/23 02:24:50;;;;;;;10.93;6.60;;;13.40;99.90;;;;;;5077067;28;20036;-42
2021/06/23 02:27:16;;;;;;;11.02;6.63;;;13.40;99.90;;;;;;5068842;28;20063;-45
2021/06/23 02:29:44;;;;;;;11.75;6.63;;;13.40;99.90;;;;;;5078936;28;20064;-42
2021/06/23 02:32:12;;;;;;;9.15;6.70;;;13.40;99.90;;;;;;5069523;28;20036;-42
2021/06/23 02:34:41;;;;;;;9.20;6.65;;;13.40;99.90;;;;;;5077711;28;20052;-42
2021/06/23 02:37:08;;;;;;;10.57;6.78;;;13.40;99.90;;;;;;5068747;28;20091;-41
2021/06/23 02:39:34;;;;;;;8.88;6.93;;;13.40;99.90;;;;;;5079577;28;20032;-41
2021/06/23 02:41:59;;;;;;;9.52;6.57;;;13.40;99.90;;;;;;5067127;28;20384;-42
2021/06/23 02:44:25;;;;;;;8.68;7.38;;;13.40;99.90;;;;;;5080545;28;20044;-42
2021/06/23 02:46:51;;;;;;;8.07;6.55;;;13.40;99.90;;;;;;5067381;28;20066;-42
2021/06/23 02:49:18;;;;;;;9.73;6.65;;;13.40;99.90;;;;;;5079464;28;20335;-41
2021/06/23 02:51:45;;;;;;;10.63;6.90;;;13.30;99.90;;;;;;5067661;28;20017;-42
2021/06/23 02:54:11;;;;;;;8.93;7.05;;;13.30;99.90;;;;;;5076718;28;20650;-42
2021/06/23 02:56:37;;;;;;;9.07;7.05;;;13.30;99.90;;;;;;5070128;28;20082;-41
2021/06/23 02:59:04;;;;;;;8.50;6.72;;;13.30;99.90;;;;;;5073957;28;20062;-42
2021/06/23 03:01:30;;;;;;;10.88;6.95;;;13.30;99.90;;;;;;5072813;28;20032;-40
2021/06/23 03:03:56;;;;;;;10.10;6.93;;;13.30;99.90;;;;;;5071203;28;20020;-42
2021/06/23 03:06:23;;;;;;;12.65;7.45;;;13.30;99.90;;;;;;5074983;28;20078;-41
2021/06/23 03:08:51;;;;;;;8.38;6.90;;;13.30;99.90;;;;;;5069152;28;20019;-41
2021/06/23 03:11:17;;;;;;;12.23;7.20;;;13.20;99.90;;;;;;5076563;28;20040;-42
2021/06/23 03:13:42;;;;;;;9.10;6.80;;;13.20;99.90;;;;;;5076698;28;20471;-41
2021/06/23 03:16:11;;;;;;;9.93;6.72;;;13.20;99.90;;;;;;5075588;28;20173;-42
2021/06/23 03:18:37;;;;;;;10.98;7.13;;;13.20;99.90;;;;;;5086283;28;20031;-41
2021/06/23 03:21:05;;;;;;;12.88;7.50;;;13.20;99.90;;;;;;5074044;28;20036;-42
2021/06/23 03:23:31;;;;;;;10.02;6.88;;;13.20;99.90;;;;;;5086970;28;20653;-42
2021/06/23 03:25:56;;;;;;;10.35;7.32;;;13.20;99.90;;;;;;5073762;28;20024;-42
2021/06/23 03:28:23;;;;;;;8.38;7.18;;;13.20;99.90;;;;;;5087447;28;20024;-42
2021/06/23 03:30:49;;;;;;;7.80;7.00;;;13.20;99.90;;;;;;5073953;28;20635;-42
2021/06/23 03:33:15;;;;;;;8.95;6.60;;;13.20;99.90;;;;;;5087270;28;20023;-41
2021/06/23 03:35:40;;;;;;;14.73;7.30;;;13.20;99.90;;;;;;5075952;28;20029;-42
2021/06/23 03:38:06;;;;;;;9.52;7.10;;;13.20;99.90;;;;;;5084511;28;20028;-42
2021/06/23 03:40:31;;;;;;;9.52;6.97;;;13.20;99.90;;;;;;5079200;28;20025;-42
2021/06/23 03:42:57;;;;;;;10.32;6.95;;;13.20;99.90;;;;;;5082358;28;20104;-42
2021/06/23 03:45:23;;;;;;;7.97;6.53;;;13.20;99.90;;;;;;5080867;28;20040;-41
2021/06/23 03:47:48;;;;;;;10.02;6.93;;;13.20;99.90;;;;;;5079294;28;20045;-42
2021/06/23 03:50:16;;;;;;;8.95;6.70;;;13.20;99.90;;;;;;5083993;28;20020;-43
2021/06/23 03:52:42;;;;;;;9.65;6.43;;;13.20;99.90;;;;;;5076766;28;20375;-42
2021/06/23 03:55:19;;;;;;;8.32;6.38;;;13.20;99.90;;;;;;5085273;28;20479;-43
2021/06/23 03:57:48;;;;;;;15.57;7.13;;;13.30;99.90;;;;;;5075945;28;20088;-42
2021/06/23 04:00:16;;;;;;;9.88;6.45;;;13.30;99.90;;;;;;5084528;28;20107;-41
2021/06/23 04:02:45;;;;;;;8.13;7.00;;;13.30;99.90;;;;;;5075313;28;20081;-42
2021/06/23 04:05:11;;;;;;;9.45;7.40;;;13.30;99.90;;;;;;5085453;28;20036;-42
2021/06/23 04:07:37;;;;;;;10.32;7.20;;;13.30;99.90;;;;;;5075132;28;20113;-43
2021/06/23 04:10:04;;;;;;;13.43;7.22;;;13.30;99.90;;;;;;5086268;28;20031;-44
2021/06/23 04:12:29;;;;;;;9.20;6.80;;;13.30;99.90;;;;;;5073358;28;20523;-41
2021/06/23 04:14:55;;;;;;;9.63;6.65;;;13.30;99.90;;;;;;5066063;28;20113;-43
2021/06/23 04:17:20;;;;;;;7.90;6.10;;;13.30;99.90;;;;;;5078934;28;20109;-42
2021/06/23 04:19:46;;;;;;;8.55;6.55;;;13.30;99.90;;;;;;5066156;28;20414;-42
2021/06/23 04:22:12;;;;;;;10.75;7.28;;;13.40;99.90;;;;;;5076553;28;20106;-41
2021/06/23 04:24:37;;;;;;;8.35;6.35;;;13.40;99.90;;;;;;5068285;28;20460;-41
2021/06/23 04:27:03;;;;;;;7.90;6.75;;;13.40;99.90;;;;;;5073539;28;20020;-42
2021/06/23 04:29:29;;;;;;;7.10;6.35;;;13.40;99.90;;;;;;5071355;28;20029;-42
2021/06/23 04:31:54;;;;;;;7.97;6.45;;;13.40;99.90;;;;;;5070836;28;20057;-42
2021/06/23 04:34:20;;;;;;;9.93;6.72;;;13.40;99.90;;;;;;5073303;28;20082;-42
2021/06/23 04:36:52;;;;;;;8.88;6.80;;;13.40;99.90;;;;;;5068534;28;20116;-42
2021/06/23 04:39:17;;;;;;;10.27;6.35;;;13.40;99.90;;;;;;5075507;28;20033;-42
2021/06/23 04:41:43;;;;;;;9.45;6.35;;;13.40;99.90;;;;;;5067197;28;20092;-42
2021/06/23 04:44:08;;;;;;;11.50;6.80;;;13.40;99.90;;;;;;5077200;28;20036;-42
2021/06/23 04:46:34;;;;;;;12.55;6.82;;;13.40;99.90;;;;;;5067483;28;20025;-42
2021/06/23 04:49:01;;;;;;;7.75;6.93;;;13.40;99.90;;;;;;5076273;28;20036;-42
2021/06/23 04:51:30;;;;;;;8.48;6.40;;;13.40;99.90;;;;;;5066857;28;20016;-42
2021/06/23 04:53:56;;;;;;;9.35;6.93;;;13.40;99.90;;;;;;5078287;28;20510;-43
2021/06/23 04:56:21;;;;;;;8.85;6.38;;;13.40;99.90;;;;;;5066075;28;20111;-42
2021/06/23 04:58:47;;;;;;;8.43;6.57;;;13.40;99.90;;;;;;5081448;28;20031;-42
2021/06/23 05:01:13;;;;;;;9.30;6.95;;;13.40;99.90;;;;;;5069598;28;20532;-42
2021/06/23 05:03:39;;;;;;;10.77;7.07;;;13.40;99.90;;;;;;5080571;28;20020;-43
2021/06/23 05:06:04;;;;;;;9.73;7.20;;;13.40;99.90;;;;;;5071443;28;20040;-44
2021/06/23 05:08:30;;;;;;;13.50;7.55;;;13.40;99.90;;;;;;5078144;28;20024;-43
2021/06/23 05:10:56;;;;;;;10.95;7.32;;;13.40;99.90;;;;;;5073276;28;20474;-42
2021/06/23 05:13:22;;;;;;;8.27;6.78;;;13.40;99.90;;;;;;5077549;28;20024;-42
2021/06/23 05:15:48;;;;;;;11.18;7.38;;;13.40;99.90;;;;;;5073530;28;20020;-42
2021/06/23 05:18:20;;;;;;;10.05;6.85;;;13.40;99.90;;;;;;5072749;28;20544;-43
2021/06/23 05:20:45;;;;;;;8.95;6.95;;;13.40;99.90;;;;;;5078451;28;20028;-42
2021/06/23 05:23:11;;;;;;;8.82;6.22;;;13.40;99.90;;;;;;5069951;28;20043;-42
2021/06/23 05:25:36;;;;;;;9.63;6.38;;;13.40;99.90;;;;;;5080517;28;20040;-43
2021/06/23 05:28:02;;;;;;;8.40;6.47;;;13.50;99.90;;;;;;5070349;28;20086;-43
2021/06/23 05:30:28;;;;;;;10.77;6.03;;;13.50;99.90;;;;;;5079839;28;20031;-42
2021/06/23 05:32:54;;;;;;;9.60;6.30;;;13.60;99.90;;;;;;5068541;28;20643;-43
2021/06/23 05:35:21;;;;;;;8.60;6.10;;;13.60;99.90;;;;;;5081843;28;20039;-42
2021/06/23 05:37:47;;;;;;;8.05;6.15;;;13.60;99.90;;;;;;5068335;28;20050;-43
2021/06/23 05:40:13;;;;;;;9.05;5.78;;;13.70;99.90;;;;;;5081800;28;20111;-41
2021/06/23 05:42:39;;;;;;;9.52;5.93;;;13.70;99.90;;;;;;5069384;28;20016;-42
2021/06/23 05:45:08;;;;;;;12.07;6.13;;;13.80;99.90;;;;;;5079503;28;20067;-42
2021/06/23 05:47:34;;;;;;;10.18;6.18;;;13.90;99.90;;;;;;5070118;28;20025;-42
2021/06/23 05:49:59;;;;;;;10.20;6.10;;;14.00;99.90;;;;;;5077862;28;20058;-41
2021/06/23 05:52:25;;;;;;;8.93;6.18;;;14.00;99.90;;;;;;5072097;28;20448;-41
2021/06/23 05:54:50;;;;;;;11.63;6.15;;;14.10;99.90;;;;;;5074203;28;20028;-42
2021/06/23 05:57:16;;;;;;;13.70;6.57;;;14.20;99.90;;;;;;5074614;28;20364;-42
2021/06/23 05:59:42;;;;;;;5.95;5.03;;;14.30;99.90;;;;;;5071798;28;20081;-43
2021/06/23 06:02:08;;;;;;;8.05;5.40;;;14.40;99.90;;;;;;5075033;28;20027;-43
2021/06/23 06:04:34;;;;;;;9.45;5.22;;;14.50;99.90;;;;;;5068929;28;20730;-42
2021/06/23 06:06:59;;;;;;;7.05;5.40;;;14.60;99.90;;;;;;5064310;28;20165;-42
2021/06/23 06:09:25;;;;;;;9.70;5.00;;;14.70;99.90;;;;;;5087362;28;20051;-42
2021/06/23 06:11:53;;;;;;;8.45;4.80;;;14.80;99.90;;;;;;5076174;28;20321;-42
2021/06/23 06:14:19;;;;;;;7.32;5.10;;;14.90;99.90;;;;;;5073625;28;20038;-42
2021/06/23 06:16:44;;;;;;;10.00;5.68;;;14.90;99.90;;;;;;5070425;28;20017;-42
2021/06/23 06:19:10;;;;;;;7.57;5.03;;;15.00;99.90;;;;;;5066933;28;20110;-41
2021/06/23 06:21:35;;;;;;;7.57;4.35;;;15.00;99.90;;;;;;5070290;28;20040;-42
2021/06/23 06:24:01;;;;;;;7.43;4.80;;;15.00;99.90;;;;;;5067470;28;20028;-42
2021/06/23 06:26:28;;;;;;;6.95;4.10;;;15.10;99.90;;;;;;5072051;28;20021;-42
2021/06/23 06:28:53;;;;;;;6.22;4.03;;;15.20;99.90;;;;;;5087044;28;20055;-42
2021/06/23 06:31:19;;;;;;;6.35;4.43;;;15.30;99.90;;;;;;5079712;28;20071;-42
2021/06/23 06:33:44;;;;;;;7.97;4.18;;;15.30;99.90;;;;;;5084498;28;20085;-42
2021/06/23 06:36:10;;;;;;;4.78;3.55;;;15.40;99.90;;;;;;5082032;28;20498;-42
2021/06/23 06:38:35;;;;;;;5.65;3.25;;;15.40;99.90;;;;;;5081553;28;20386;-42
2021/06/23 06:41:02;;;;;;;7.55;3.60;;;15.40;99.90;;;;;;5084201;28;20032;-42
2021/06/23 06:43:28;;;;;;;8.65;3.95;;;15.40;99.90;;;;;;5079369;28;20024;-42
2021/06/23 06:45:54;;;;;;;8.60;3.80;;;15.40;99.90;;;;;;5086487;28;20107;-43
2021/06/23 06:48:21;;;;;;;6.78;3.50;;;15.40;99.90;;;;;;5076835;28;20031;-42
2021/06/23 06:50:47;;;;;;;6.50;3.15;;;15.40;99.90;;;;;;5086596;28;20039;-42
2021/06/23 06:53:12;;;;;;;5.70;3.17;;;15.50;99.90;;;;;;5076348;28;20107;-42
2021/06/23 06:55:38;;;;;;;4.68;3.42;;;15.50;99.90;;;;;;5087866;28;20031;-43
2021/06/23 06:58:04;;;;;;;5.22;3.10;;;15.60;99.90;;;;;;5074442;28;20098;-43
2021/06/23 07:00:32;;;;;;;6.15;3.47;;;15.60;99.90;;;;;;5088286;28;20031;-43
2021/06/23 07:02:58;;;;;;;7.03;3.22;;;15.70;99.90;;;;;;5070136;28;20104;-43
2021/06/23 07:05:27;;;;;;;8.57;3.60;;;15.70;99.90;;;;;;5087713;28;20173;-43
2021/06/23 07:07:54;;;;;;;6.57;3.03;;;15.80;99.90;;;;;;5054908;28;20082;-43
2021/06/23 07:10:19;;;;;;;7.28;3.53;;;15.80;99.90;;;;;;5066719;28;20515;-42
2021/06/23 07:12:45;;;;;;;7.93;3.45;;;15.80;99.90;;;;;;5058174;28;20389;-43
2021/06/23 07:15:11;;;;;;;7.22;3.80;;;15.90;99.90;;;;;;5040698;28;20038;-42
2021/06/23 07:17:37;;;;;;;8.10;3.35;;;15.90;99.90;;;;;;5045474;28;20029;-42
2021/06/23 07:20:04;;;;;;;5.80;3.08;;;15.90;99.90;;;;;;5044828;28;20116;-42
2021/06/23 07:22:32;;;;;;;5.72;3.05;;;15.90;99.90;;;;;;5051213;28;20025;-43
2021/06/23 07:24:58;;;;;;;8.00;2.90;;;15.90;99.80;;;;;;5054823;28;20616;-42
2021/06/23 07:27:23;;;;;;;10.45;3.30;;;16.00;99.90;;;;;;5048883;28;20079;-41
2021/06/23 07:29:50;;;;;;;4.82;2.80;;;16.10;99.90;;;;;;5057377;28;20033;-42
2021/06/23 07:37:45;;;;;;;6.95;2.60;;;16.20;99.40;;;;;;5064786;28;20086;-43
2021/06/23 07:40:12;;;;;;;3.83;2.00;;;16.20;99.30;;;;;;5056453;28;20020;-42
2021/06/23 07:42:37;;;;;;;8.27;2.50;;;16.30;99.10;;;;;;5065644;28;20461;-42
2021/06/23 07:45:04;;;;;;;5.20;2.25;;;16.30;98.90;;;;;;5055217;28;20090;-42
2021/06/23 07:47:36;;;;;;;6.28;2.42;;;16.40;98.80;;;;;;5066295;28;20028;-42
2021/06/23 07:50:06;;;;;;;7.93;3.30;;;16.40;98.80;;;;;;5053804;28;20387;-41
2021/06/23 07:52:46;;;;;;;6.70;2.70;;;16.50;98.50;;;;;;5046882;28;20091;-42
2021/06/23 08:09:09;;;;;;;4.40;2.28;;;16.90;98.10;;;;;;5063516;28;20039;-42
2021/06/23 08:11:39;;;;;;;6.00;2.65;;;17.00;98.00;;;;;;5059072;28;20375;-42
2021/06/23 08:14:05;;;;;;;7.07;2.30;;;17.00;97.70;;;;;;5059088;28;20021;-42
2021/06/23 08:16:33;;;;;;;9.18;2.50;;;17.10;97.70;;;;;;5056586;28;20461;-43
2021/06/23 08:18:59;;;;;;;6.32;2.58;;;17.20;97.50;;;;;;5047105;28;20044;-43
2021/06/23 08:21:25;;;;;;;7.50;2.42;;;17.20;97.20;;;;;;5056443;28;20473;-41
2021/06/23 08:23:50;;;;;;;5.60;2.58;;;17.20;97.10;;;;;;5047815;28;20013;-42
2021/06/23 08:26:16;;;;;;;5.07;2.38;;;17.10;96.80;;;;;;5057187;28;20561;-42
2021/06/23 08:28:42;;;;;;;3.97;1.80;;;17.10;96.90;;;;;;5046631;28;20096;-42
2021/06/23 08:31:08;;;;;;;5.47;2.20;;;17.10;97.10;;;;;;5058871;28;20600;-42
2021/06/23 08:33:34;;;;;;;6.70;2.70;;;17.10;97.30;;;;;;5049155;28;20104;-42
2021/06/23 08:36:00;;;;;;;4.78;2.10;;;17.10;96.80;;;;;;5062265;28;20032;-41
2021/06/23 08:38:25;;;;;;;4.78;2.25;;;17.20;96.60;;;;;;5050813;28;20086;-42
2021/06/23 08:40:51;;;;;;;8.07;2.42;;;17.20;96.50;;;;;;5059817;28;20024;-43
2021/06/23 08:43:19;;;;;;;3.33;2.00;;;17.30;96.40;;;;;;5052534;28;20014;-42
2021/06/23 08:45:45;;;;;;;8.35;2.40;;;17.30;95.60;;;;;;5058212;28;20398;-41
2021/06/23 08:48:11;;;;;;;11.63;2.17;;;17.40;95.80;;;;;;5053649;28;20421;-42
2021/06/23 08:50:37;;;;;;;7.63;2.50;;;17.50;95.90;;;;;;5055884;28;20052;-42
2021/06/23 08:53:03;;;;;;;7.25;2.15;;;17.60;95.80;;;;;;5056527;28;20047;-42
2021/06/23 08:55:29;;;;;;;7.00;2.28;;;17.70;95.10;;;;;;5052945;28;20021;-42
2021/06/23 08:57:54;;;;;;;5.43;2.15;;;17.70;95.00;;;;;;5059392;28;20101;-42
2021/06/23 09:00:24;;;;;;;8.13;2.05;;;17.80;95.00;;;;;;5039649;28;20203;-41
2021/06/23 09:02:51;;;;;;;5.82;2.10;;;17.80;94.70;;;;;;5056175;28;20431;-42
2021/06/23 09:05:18;;;;;;;5.72;1.80;;;17.80;94.60;;;;;;5025502;28;20033;-43
2021/06/23 09:07:48;;;;;;;5.60;1.63;;;17.90;94.80;;;;;;5045455;28;20041;-43
2021/06/23 09:10:28;;;;;;;4.75;1.65;;;18.00;94.80;;;;;;5048167;28;20505;-43
2021/06/23 09:13:06;;;;;;;6.60;2.10;;;18.10;94.70;;;;;;5055997;28;20451;-43
2021/06/23 09:15:43;;;;;;;6.47;1.95;;;18.20;94.20;;;;;;5031535;28;20435;-42
2021/06/23 09:18:14;;;;;;;9.18;2.38;;;18.20;93.90;;;;;;5058473;28;20306;-42
2021/06/23 09:20:40;;;;;;;8.13;1.90;;;18.30;94.00;;;;;;5048501;28;20017;-43
2021/06/23 09:23:10;;;;;;;4.53;1.90;;;18.40;93.90;;;;;;5059228;28;20487;-41
2021/06/23 09:25:37;;;;;;;5.45;1.70;;;18.50;94.00;;;;;;5049575;28;20029;-42
2021/06/23 09:28:05;;;;;;;7.15;1.98;;;18.60;93.70;;;;;;5060445;28;20017;-43
2021/06/23 09:30:39;;;;;;;6.22;1.90;;;18.80;93.50;;;;;;5029459;28;20452;-42
2021/06/23 09:33:09;;;;;;;7.85;2.40;;;18.80;93.40;;;;;;5059282;28;20035;-42
2021/06/23 09:35:36;;;;;;;4.35;1.90;;;18.90;93.30;;;;;;5049762;28;20044;-42
2021/06/23 09:38:03;;;;;;;4.47;2.17;;;19.00;93.30;;;;;;5061017;28;20027;-42
2021/06/23 09:40:32;;;;;;;5.07;1.90;;;19.10;92.80;;;;;;5049270;28;20139;-42
2021/06/23 09:43:02;;;;;;;5.13;1.60;;;19.20;92.10;;;;;;5057676;28;20337;-42
2021/06/23 09:45:31;;;;;;;2.95;1.50;;;19.30;92.20;;;;;;5050169;28;20036;-43
2021/06/23 09:48:05;;;;;;;5.78;1.80;;;19.40;92.20;;;;;;5050743;28;20098;-43
2021/06/23 09:50:32;;;;;;;4.78;2.13;;;19.40;92.00;;;;;;5048181;28;20040;-42
2021/06/23 09:53:05;;;;;;;4.20;1.92;;;19.50;92.20;;;;;;5047694;28;20060;-43
2021/06/23 09:55:38;;;;;;;3.97;1.70;;;19.50;92.50;;;;;;5049854;28;20025;-41
2021/06/23 09:58:24;;;;;;;6.20;2.00;;;19.50;91.40;;;;;;5045353;28;20035;-43
2021/06/23 10:01:01;;;;;;;3.35;1.50;;;19.40;91.60;;;;;;5042931;28;20348;-42
2021/06/23 10:03:34;;;;;;;3.97;1.40;;;19.40;91.70;;;;;;5056699;28;20112;-42
2021/06/23 10:06:32;;;;;;;5.95;1.63;;;19.40;91.70;;;;;;5050474;28;20033;-42
2021/06/23 10:09:24;;;;;;;5.40;1.98;;;19.50;91.60;;;;;;5060420;28;20047;-41
2021/06/23 10:12:12;;;;;;;4.55;1.58;;;19.50;91.80;;;;;;5028047;28;20180;-42
2021/06/23 10:14:43;;;;;;;4.40;2.20;;;19.50;91.70;;;;;;5065521;28;20124;-43
2021/06/23 10:17:10;;;;;;;5.70;2.10;;;19.50;91.30;;;;;;5067957;28;20036;-43
2021/06/23 10:19:36;;;;;;;7.20;2.15;;;19.40;90.50;;;;;;5059825;28;20031;-43
2021/06/23 10:22:06;;;;;;;5.28;1.92;;;19.40;90.60;;;;;;5047999;28;20020;-43
2021/06/23 10:24:35;;;;;;;6.38;2.05;;;19.40;90.50;;;;;;5060694;28;20032;-43
2021/06/23 10:27:07;;;;;;;3.55;1.70;;;19.40;90.50;;;;;;5043097;28;20028;-42
2021/06/23 10:29:35;;;;;;;5.80;1.83;;;19.40;90.60;;;;;;5059516;28;20107;-43
2021/06/23 10:32:03;;;;;;;7.13;2.17;;;19.40;90.30;;;;;;5045135;28;20049;-43
2021/06/23 10:34:29;;;;;;;5.20;1.90;;;19.40;90.50;;;;;;5056185;28;20452;-43
2021/06/23 10:36:56;;;;;;;5.18;1.90;;;19.50;90.40;;;;;;5051586;28;20024;-43
2021/06/23 10:39:24;;;;;;;4.55;1.80;;;19.60;90.10;;;;;;5054120;28;20032;-43
2021/06/23 10:41:52;;;;;;;5.38;2.03;;;19.60;90.10;;;;;;5052562;28;20060;-42
2021/06/23 10:44:33;;;;;;;4.75;2.20;;;19.60;89.80;;;;;;5051960;28;20025;-42
2021/06/23 10:47:01;;;;;;;4.13;1.73;;;19.60;89.30;;;;;;5052653;28;20029;-42
2021/06/23 10:49:44;;;;;;;3.50;1.60;;;19.60;89.40;;;;;;5052030;28;20017;-42
2021/06/23 10:52:22;;;;;;;6.70;1.88;;;19.60;88.90;;;;;;5052611;28;20178;-42
2021/06/23 10:54:55;;;;;;;6.05;1.92;;;19.60;88.90;;;;;;5052450;28;20664;-43
2021/06/23 10:57:26;;;;;;;4.82;1.88;;;19.60;89.10;;;;;;5052915;28;20017;-43
2021/06/23 11:00:17;;;;;;;3.80;1.60;;;19.60;88.90;;;;;;5049518;28;20021;-42
2021/06/23 11:02:52;;;;;;;5.93;1.70;;;19.70;89.00;;;;;;5040198;28;20368;-44
2021/06/23 11:05:21;;;;;;;5.15;1.75;;;19.80;88.90;;;;;;5054512;28;20432;-43
2021/06/23 11:07:51;;;;;;;6.85;1.75;;;19.90;89.10;;;;;;5051370;28;20049;-42
2021/06/23 11:10:25;;;;;;;7.53;1.88;;;20.10;88.70;;;;;;5052730;28;20085;-42
2021/06/23 11:13:00;;;;;;;5.05;1.55;;;20.10;86.80;;;;;;5053258;28;20078;-42
2021/06/23 11:15:31;;;;;;;4.40;1.67;;;20.20;87.10;;;;;;5060951;28;20035;-42
2021/06/23 11:18:34;;;;;;;5.28;1.88;;;20.30;86.50;;;;;;5060553;28;20456;-42
2021/06/23 11:21:05;;;;;;;4.20;1.50;;;20.40;86.50;;;;;;5058251;28;20457;-43
2021/06/23 11:23:46;;;;;;;6.65;1.77;;;20.50;87.00;;;;;;5064465;28;20097;-42
2021/06/23 11:26:21;;;;;;;4.32;1.77;;;20.60;85.60;;;;;;5056997;28;20041;-42
2021/06/23 11:29:10;;;;;;;4.00;1.58;;;20.60;85.00;;;;;;5048646;28;20492;-42
2021/06/23 11:32:24;;;;;;;6.88;1.90;;;20.70;85.40;;;;;;5041999;28;20453;-42
2021/06/23 11:34:53;;;;;;;4.10;1.63;;;20.70;84.50;;;;;;4957028;28;20023;-43
2021/06/23 11:37:20;;;;;;;5.05;2.05;;;20.70;84.40;;;;;;4969754;28;20116;-43
2021/06/23 11:39:46;;;;;;;3.33;1.60;;;20.70;84.30;;;;;;5030755;28;20028;-43
2021/06/23 11:42:13;;;;;;;3.72;1.55;;;20.60;84.20;;;;;;5054077;28;20111;-43
2021/06/23 11:44:40;;;;;;;4.28;1.70;;;20.60;85.20;;;;;;5059470;28;20144;-42
2021/06/23 11:47:06;;;;;;;2.92;1.67;;;20.70;85.70;;;;;;5046603;28;20052;-43
2021/06/23 11:49:42;;;;;;;6.57;2.00;;;20.90;85.70;;;;;;5065435;28;20032;-43
2021/06/23 11:52:11;;;;;;;5.28;1.88;;;21.00;85.90;;;;;;5053762;28;20128;-43
2021/06/23 11:54:41;;;;;;;6.25;2.03;;;21.00;85.30;;;;;;5045943;28;20025;-43
2021/06/23 11:57:07;;;;;;;5.90;1.80;;;21.10;84.90;;;;;;5054047;28;20025;-42
2021/06/23 11:59:32;;;;;;;7.05;2.10;;;21.10;85.20;;;;;;5051637;28;20029;-42
2021/06/23 12:02:01;;;;;;;5.45;1.98;;;21.10;85.30;;;;;;5051467;28;20405;-43
2021/06/23 12:04:28;;;;;;;4.72;1.75;;;21.10;84.70;;;;;;5054743;28;20068;-42
2021/06/23 12:06:54;;;;;;;5.00;1.90;;;21.10;84.50;;;;;;5065027;28;20124;-42
2021/06/23 12:09:22;;;;;;;5.22;1.73;;;21.10;84.70;;;;;;5059502;28;20564;-43
2021/06/23 12:11:47;;;;;;;4.53;1.83;;;21.20;84.90;;;;;;5038710;28;20029;-42
2021/06/23 12:14:13;;;;;;;5.57;2.05;;;21.20;84.40;;;;;;5058695;28;20534;-42
2021/06/23 12:16:41;;;;;;;5.80;2.15;;;21.20;84.00;;;;;;5071814;28;20082;-42
2021/06/23 12:19:07;;;;;;;3.88;1.65;;;21.20;83.60;;;;;;5061629;28;20047;-42
2021/06/23 12:21:36;;;;;;;4.35;2.15;;;21.20;84.10;;;;;;5072536;28;20058;-42
2021/06/23 12:24:02;;;;;;;6.82;2.10;;;21.20;83.70;;;;;;5059515;28;20017;-43
2021/06/23 12:26:27;;;;;;;6.32;2.03;;;21.20;84.20;;;;;;5052757;28;20044;-42
2021/06/23 12:28:53;;;;;;;3.72;1.80;;;21.20;83.90;;;;;;5064693;28;20025;-42
2021/06/23 12:31:19;;;;;;;4.70;1.70;;;21.20;83.60;;;;;;5053480;28;20021;-41
2021/06/23 12:33:45;;;;;;;4.05;2.03;;;21.20;83.70;;;;;;5056437;28;20111;-42
2021/06/23 12:36:13;;;;;;;5.63;1.98;;;21.30;84.10;;;;;;5072251;28;20040;-41
2021/06/23 12:38:39;;;;;;;4.45;2.05;;;21.30;83.80;;;;;;5063998;28;20021;-41
2021/06/23 12:41:04;;;;;;;5.28;2.00;;;21.40;83.90;;;;;;5059859;28;20075;-41
2021/06/23 12:43:30;;;;;;;4.68;2.10;;;21.40;83.80;;;;;;5059607;28;20480;-41
2021/06/23 12:45:56;;;;;;;4.25;1.73;;;21.50;83.50;;;;;;5057742;28;20129;-42
2021/06/23 12:48:24;;;;;;;4.95;2.03;;;21.50;83.60;;;;;;5048909;28;20021;-43
2021/06/23 12:50:50;;;;;;;4.05;1.80;;;21.50;83.50;;;;;;5059591;28;20135;-42
2021/06/23 12:53:16;;;;;;;4.07;1.83;;;21.50;84.00;;;;;;5070512;28;20735;-43
2021/06/23 12:55:41;;;;;;;3.05;1.60;;;21.60;84.10;;;;;;5062467;28;20085;-43
2021/06/23 12:58:07;;;;;;;4.97;2.30;;;21.60;83.70;;;;;;5071405;28;20047;-43
2021/06/23 13:00:32;;;;;;;5.90;2.65;;;21.60;82.80;;;;;;5061480;28;20049;-43
2021/06/23 13:02:58;;;;;;;6.05;2.72;;;21.60;82.90;;;;;;5072456;28;20490;-42
2021/06/23 13:05:29;;;;;;;6.25;2.33;;;21.70;81.30;;;;;;5059694;28;20499;-42
2021/06/23 13:07:56;;;;;;;6.55;2.53;;;21.70;82.10;;;;;;5072136;28;20114;-42
2021/06/23 13:10:22;;;;;;;4.65;2.20;;;21.60;81.60;;;;;;5060249;28;20033;-42